Tuesday, April 24, 2018, 4:42 AM EDT
Back to Local

KMGJ, Montgomery Orange Co Airport

Location: Montgomery, NY, United States Lat: 41.517
Local Time: 4:42 AM EDT ( 8:42 GMT) Lon: -74.267
Time Zone: US/Eastern Elev: 354 ft

Show me the last for .
Show Decoded

2018-04-24 03:54 METAR KMGJ 240754Z AUTO 00000KT 10SM CLR 02/M01 A3037 RMK AO2 SLP287 T00171011 =
2018-04-24 02:54 METAR KMGJ 240654Z AUTO 00000KT 10SM CLR 02/M01 A3037 RMK AO2 SLP286 T00221006 =
2018-04-24 01:54 METAR KMGJ 240554Z AUTO 00000KT 10SM CLR 03/M01 A3038 RMK AO2 SLP289 T00331006
                 10150 20033 58007 =
2018-04-24 00:54 METAR KMGJ 240454Z AUTO 00000KT 10SM CLR 05/M01 A3039 RMK AO2 SLP293 T00501006
                 402111022 =
2018-04-23 23:54 METAR KMGJ 240354Z AUTO 00000KT 10SM CLR 07/00 A3040 RMK AO2 SLP295 T00670000 =
2018-04-23 22:54 METAR KMGJ 240254Z AUTO 00000KT 10SM CLR 08/01 A3040 RMK AO2 SLP295 T00780006
                 50012 =
2018-04-23 21:54 METAR KMGJ 240154Z AUTO 18004KT 10SM CLR 11/M01 A3040 RMK AO2 SLP297 T01111011 =
2018-04-23 20:54 METAR KMGJ 240054Z AUTO 20008KT 10SM CLR 13/M01 A3039 RMK AO2 SLP291 T01281011 =
2018-04-23 19:54 METAR KMGJ 232354Z AUTO 17009KT 10SM CLR 14/M02 A3036 RMK AO2 SLP283 T01441017
                 10211 20144 53004 =
2018-04-23 18:54 METAR KMGJ 232254Z AUTO 18012KT 10SM CLR 17/M03 A3034 RMK AO2 SLP276 T01721033 =
2018-04-23 17:54 METAR KMGJ 232154Z AUTO 16010KT 10SM CLR 19/M06 A3035 RMK AO2 SLP277 T01941061 =
2018-04-23 16:54 METAR KMGJ 232054Z AUTO 16009KT 10SM CLR 21/M06 A3035 RMK AO2 SLP279 T02061056
                 56017 =
2018-04-23 15:54 METAR KMGJ 231954Z AUTO VRB04KT 10SM CLR 21/M08 A3036 RMK AO2 SLP283 T02061078 =
2018-04-23 14:54 METAR KMGJ 231854Z AUTO VRB03KT 10SM CLR 19/M08 A3038 RMK AO2 SLP290 T01941083 =
2018-04-23 13:54 METAR KMGJ 231754Z AUTO VRB03KT 10SM CLR 18/M08 A3040 RMK AO2 SLP296 T01831083
                 10189 20056 58025 =
2018-04-23 12:54 METAR KMGJ 231654Z AUTO 00000KT 10SM CLR 17/M08 A3043 RMK AO2 SLP305 T01721078 =
2018-04-23 11:54 METAR KMGJ 231554Z AUTO 00000KT 10SM CLR 17/M07 A3046 RMK AO2 SLP315 T01671067 =
2018-04-23 10:54 METAR KMGJ 231454Z AUTO VRB03KT 10SM CLR 15/M04 A3048 RMK AO2 SLP321 T01501039
                 51003 =
2018-04-23 09:54 METAR KMGJ 231354Z AUTO 00000KT 10SM CLR 13/M04 A3048 RMK AO2 SLP321 T01281044 =
2018-04-23 08:54 METAR KMGJ 231254Z AUTO 00000KT 10SM CLR 09/M03 A3047 RMK AO2 SLP319 T00891028 =
2018-04-23 07:54 METAR KMGJ 231154Z AUTO 01004KT 5SM HZ CLR 05/M02 A3047 RMK AO2 SLP319 T00501017
                 10050 21022 50011 =
2018-04-23 06:54 METAR KMGJ 231054Z AUTO 00000KT 10SM CLR M01/M03 A3047 RMK AO2 SLP320 T10061028
                 =
2018-04-23 05:54 METAR KMGJ 230954Z AUTO 00000KT 10SM CLR M01/M04 A3045 RMK AO2 SLP313 T10111044
                 =
2018-04-23 04:54 METAR KMGJ 230854Z AUTO 00000KT 10SM CLR M01/M03 A3043 RMK AO2 SLP308 T10061028
                 53015 =

Support USWX by starting your Amazon purchase here.